sensor_id;sensor_type;location;lat;lon;timestamp;pressure;altitude;pressure_sealevel;temperature;humidity
31011;BME280;26395;53.412;19.598;2023-03-23T00:11:36;99539.77;;;14.03;84.15
31011;BME280;26395;53.412;19.598;2023-03-23T00:26:41;99523.75;;;14.06;84.10
31011;BME280;26395;53.412;19.598;2023-03-23T00:41:46;99513.27;;;14.04;83.20
31011;BME280;26395;53.412;19.598;2023-03-23T00:56:48;99497.35;;;14.00;82.81
31011;BME280;26395;53.412;19.598;2023-03-23T01:11:53;99495.33;;;13.90;82.87
31011;BME280;26395;53.412;19.598;2023-03-23T01:26:57;99489.01;;;13.79;82.42
31011;BME280;26395;53.412;19.598;2023-03-23T01:41:59;99480.53;;;13.74;82.33
31011;BME280;26395;53.412;19.598;2023-03-23T01:57:07;99472.45;;;13.73;82.17
31011;BME280;26395;53.412;19.598;2023-03-23T02:12:12;99471.16;;;13.78;82.68
31011;BME280;26395;53.412;19.598;2023-03-23T02:27:23;99470.20;;;13.77;81.98
31011;BME280;26395;53.412;19.598;2023-03-23T02:42:31;99451.21;;;13.70;82.24
31011;BME280;26395;53.412;19.598;2023-03-23T02:57:36;99439.35;;;13.57;82.60
31011;BME280;26395;53.412;19.598;2023-03-23T03:13:05;99434.27;;;13.43;82.78
31011;BME280;26395;53.412;19.598;2023-03-23T03:28:15;99405.05;;;13.26;82.90
31011;BME280;26395;53.412;19.598;2023-03-23T03:43:19;99399.05;;;13.01;83.68
31011;BME280;26395;53.412;19.598;2023-03-23T03:58:22;99405.80;;;12.90;84.10
31011;BME280;26395;53.412;19.598;2023-03-23T04:13:42;99396.70;;;12.84;84.03
31011;BME280;26395;53.412;19.598;2023-03-23T04:28:54;99391.32;;;12.76;84.14
31011;BME280;26395;53.412;19.598;2023-03-23T04:44:17;99377.65;;;12.63;84.97
31011;BME280;26395;53.412;19.598;2023-03-23T04:59:24;99369.36;;;12.57;85.14
31011;BME280;26395;53.412;19.598;2023-03-23T05:14:41;99372.40;;;12.50;85.10
31011;BME280;26395;53.412;19.598;2023-03-23T05:29:46;99392.69;;;12.49;84.53
31011;BME280;26395;53.412;19.598;2023-03-23T05:44:50;99383.39;;;12.51;84.43
31011;BME280;26395;53.412;19.598;2023-03-23T05:59:53;99376.21;;;12.82;84.26
31011;BME280;26395;53.412;19.598;2023-03-23T06:14:57;99355.34;;;13.26;84.21
31011;BME280;26395;53.412;19.598;2023-03-23T06:30:13;99358.98;;;13.41;83.71
31011;BME280;26395;53.412;19.598;2023-03-23T06:45:17;99352.04;;;13.52;83.98
31011;BME280;26395;53.412;19.598;2023-03-23T07:00:22;99348.63;;;13.83;83.63
31011;BME280;26395;53.412;19.598;2023-03-23T07:15:24;99331.31;;;14.29;82.90
31011;BME280;26395;53.412;19.598;2023-03-23T07:30:28;99307.06;;;14.50;82.28
31011;BME280;26395;53.412;19.598;2023-03-23T07:45:33;99277.04;;;15.08;80.92
31011;BME280;26395;53.412;19.598;2023-03-23T08:00:36;99266.09;;;15.88;76.86
31011;BME280;26395;53.412;19.598;2023-03-23T08:15:38;99287.69;;;16.09;73.73
31011;BME280;26395;53.412;19.598;2023-03-23T08:31:08;99276.16;;;17.13;68.70
31011;BME280;26395;53.412;19.598;2023-03-23T08:46:38;99277.76;;;17.66;66.24
31011;BME280;26395;53.412;19.598;2023-03-23T09:02:04;99286.81;;;18.04;63.94
31011;BME280;26395;53.412;19.598;2023-03-23T09:17:17;99289.73;;;18.90;62.19
31011;BME280;26395;53.412;19.598;2023-03-23T09:32:19;99276.73;;;19.02;60.35
31011;BME280;26395;53.412;19.598;2023-03-23T10:02:30;99249.03;;;19.55;58.18
31011;BME280;26395;53.412;19.598;2023-03-23T10:18:36;99270.88;;;19.38;58.72
31011;BME280;26395;53.412;19.598;2023-03-23T10:33:21;99269.02;;;19.27;59.26
31011;BME280;26395;53.412;19.598;2023-03-23T10:48:35;99269.77;;;19.20;59.17
31011;BME280;26395;53.412;19.598;2023-03-23T11:03:42;99282.50;;;18.81;59.47
31011;BME280;26395;53.412;19.598;2023-03-23T11:18:45;99290.36;;;18.52;60.32
31011;BME280;26395;53.412;19.598;2023-03-23T11:49:09;99315.11;;;17.94;64.02
31011;BME280;26395;53.412;19.598;2023-03-23T12:50:00;99319.55;;;17.51;68.79
31011;BME280;26395;53.412;19.598;2023-03-23T13:05:10;99318.85;;;17.32;70.15
31011;BME280;26395;53.412;19.598;2023-03-23T13:35:38;99320.64;;;17.43;72.10
31011;BME280;26395;53.412;19.598;2023-03-23T13:50:52;99327.05;;;17.45;71.67
31011;BME280;26395;53.412;19.598;2023-03-23T14:21:01;99313.02;;;16.89;73.24
31011;BME280;26395;53.412;19.598;2023-03-23T14:36:03;99307.71;;;16.95;73.77
31011;BME280;26395;53.412;19.598;2023-03-23T14:51:06;99313.48;;;17.12;72.74
31011;BME280;26395;53.412;19.598;2023-03-23T15:06:15;99314.56;;;17.25;71.55
31011;BME280;26395;53.412;19.598;2023-03-23T15:21:30;99313.36;;;17.16;71.23
31011;BME280;26395;53.412;19.598;2023-03-23T15:36:36;99310.98;;;17.08;70.51
31011;BME280;26395;53.412;19.598;2023-03-23T15:56:09;99306.08;;;17.14;69.67
31011;BME280;26395;53.412;19.598;2023-03-23T16:11:14;99309.84;;;17.06;68.98
31011;BME280;26395;53.412;19.598;2023-03-23T16:26:20;99322.75;;;17.15;68.78
31011;BME280;26395;53.412;19.598;2023-03-23T16:41:36;99354.85;;;17.08;70.05
31011;BME280;26395;53.412;19.598;2023-03-23T16:56:39;99364.89;;;16.89;70.93
31011;BME280;26395;53.412;19.598;2023-03-23T17:11:42;99347.40;;;16.68;71.42
31011;BME280;26395;53.412;19.598;2023-03-23T17:26:47;99347.05;;;16.54;72.45
31011;BME280;26395;53.412;19.598;2023-03-23T17:41:50;99355.56;;;16.58;72.70
31011;BME280;26395;53.412;19.598;2023-03-23T17:56:54;99364.18;;;16.48;73.44
31011;BME280;26395;53.412;19.598;2023-03-23T18:12:01;99364.39;;;16.39;74.37
31011;BME280;26395;53.412;19.598;2023-03-23T18:27:05;99371.97;;;16.35;74.78
31011;BME280;26395;53.412;19.598;2023-03-23T18:42:09;99379.45;;;16.39;75.25
31011;BME280;26395;53.412;19.598;2023-03-23T18:57:15;99381.65;;;16.28;75.38
31011;BME280;26395;53.412;19.598;2023-03-23T19:12:20;99394.23;;;15.92;76.31
31011;BME280;26395;53.412;19.598;2023-03-23T19:27:26;99387.66;;;15.68;78.04
31011;BME280;26395;53.412;19.598;2023-03-23T19:42:30;99394.23;;;15.61;79.35
31011;BME280;26395;53.412;19.598;2023-03-23T19:57:35;99407.56;;;15.50;79.83
31011;BME280;26395;53.412;19.598;2023-03-23T20:12:40;99412.31;;;15.55;79.42
31011;BME280;26395;53.412;19.598;2023-03-23T20:27:44;99436.99;;;15.67;79.75
31011;BME280;26395;53.412;19.598;2023-03-23T20:42:49;99504.05;;;15.03;82.90
31011;BME280;26395;53.412;19.598;2023-03-23T20:57:55;99505.89;;;14.59;85.10
31011;BME280;26395;53.412;19.598;2023-03-23T21:13:00;99508.89;;;14.55;85.21
31011;BME280;26395;53.412;19.598;2023-03-23T21:28:05;99505.17;;;14.55;85.55
31011;BME280;26395;53.412;19.598;2023-03-23T21:43:10;99533.46;;;14.21;87.65
31011;BME280;26395;53.412;19.598;2023-03-23T21:58:23;99514.81;;;14.20;87.64
31011;BME280;26395;53.412;19.598;2023-03-23T22:13:31;99489.01;;;14.15;87.54
31011;BME280;26395;53.412;19.598;2023-03-23T22:28:35;99508.05;;;14.06;87.12
31011;BME280;26395;53.412;19.598;2023-03-23T22:43:39;99557.60;;;13.75;88.88
31011;BME280;26395;53.412;19.598;2023-03-23T22:58:43;99551.96;;;13.58;91.93
31011;BME280;26395;53.412;19.598;2023-03-23T23:13:46;99542.19;;;13.73;92.07
31011;BME280;26395;53.412;19.598;2023-03-23T23:38:45;99520.41;;;13.69;91.93
31011;BME280;26395;53.412;19.598;2023-03-23T23:53:48;99528.58;;;13.63;92.58
